Terminal Aerodrome Forecast
Issued by NWS Brownsville, TX

Home | Current Version | Previous Version | Text Only | Print | Product List | Glossary On
Versions: 1 2 3 4 5 6 7 8 9 10 11 12 13 14 15 16 17 18 19 20 21 22 23 24 25 26 27
000
FTUS44 KBRO 010345 AAC
TAFBRO
TAF AMD
KBRO 010345Z 0104/0124 08004KT 5SM BR SCT005 OVC010
     FM010600 11004KT 4SM BR BKN010 OVC015
     FM011500 13009KT 6SM HZ SCT015 BKN030
     FM011800 12012KT P6SM SCT030=

USA.gov is the U.S. government's official web portal to all federal, state and local government web resources and services.